5PN3 weather

Tyrone Hospital Heliport
Tyrone, Pennsylvania, United States

Public forecast

Using degrees Fahrenheit for public forecast. Weather courtesy of forecast.io.

METAR (pilot weather report)

Closest report is University Park Airport, 21.3 nm (39.4 km) ENE. Retrieved 2019/05/25 04:35 UTC (10 minutes ago):

KUNV 250435Z AUTO 00000KT 10SM OVC080 16/11 A3015 RMK AO2 T01560111

TAF (pilot weather forecast)

Forecast is more than 12 hours old.

Closest forecast is University Park Airport, 21.3 nm (39.4 km) ENE. Retrieved 2019/05/24 00:45 UTC (1 day ago):

TAF KUNV 242342Z 2500/2524 35006KT P6SM BKN110 FM250300 32006KT P6SM SCT250 FM251500 20006KT P6SM OVC050